createdAt,value
2018-03-28T00:00:42.471Z,86.11
2018-03-28T00:01:42.393Z,86.30
2018-03-28T00:02:42.306Z,85.55
2018-03-28T00:03:42.226Z,85.64
2018-03-28T00:04:42.137Z,86.21
2018-03-28T00:05:42.060Z,86.11
2018-03-28T00:06:41.975Z,86.11
2018-03-28T00:07:41.897Z,85.93
2018-03-28T00:08:41.810Z,85.93
2018-03-28T00:09:41.728Z,86.11
2018-03-28T00:10:41.646Z,85.97
2018-03-28T00:11:41.568Z,85.45
2018-03-28T00:12:41.480Z,85.64
2018-03-28T00:13:41.400Z,86.30
2018-03-28T00:14:41.315Z,85.83
2018-03-28T00:15:41.232Z,85.83
2018-03-28T00:16:41.150Z,85.93
2018-03-28T00:17:41.067Z,86.02
2018-03-28T00:18:40.984Z,85.83
2018-03-28T00:19:40.901Z,86.02
2018-03-28T00:20:40.822Z,86.02
2018-03-28T00:21:40.738Z,86.02
2018-03-28T00:22:40.655Z,86.11
2018-03-28T00:23:40.577Z,86.21
2018-03-28T00:24:40.498Z,86.11
2018-03-28T00:25:40.417Z,86.21
2018-03-28T00:26:40.324Z,86.21
2018-03-28T00:27:40.246Z,86.30
2018-03-28T00:28:40.162Z,86.21
2018-03-28T00:29:40.088Z,85.97
2018-03-28T00:30:39.998Z,85.97
2018-03-28T00:31:39.913Z,86.25
2018-03-28T00:32:39.832Z,86.44
2018-03-28T00:33:39.750Z,86.25
2018-03-28T00:34:39.687Z,86.16
2018-03-28T00:35:39.611Z,85.97
2018-03-28T00:36:39.510Z,86.25
2018-03-28T00:37:39.418Z,86.35
2018-03-28T00:38:39.336Z,86.16
2018-03-28T00:39:39.255Z,86.07
2018-03-28T00:40:39.170Z,86.25
2018-03-28T00:41:39.088Z,85.97
2018-03-28T00:42:39.021Z,86.25
2018-03-28T00:43:38.935Z,86.44
2018-03-28T00:44:38.842Z,86.35
2018-03-28T00:45:38.762Z,85.97
2018-03-28T00:46:38.680Z,85.87
2018-03-28T00:47:38.599Z,86.59
2018-03-28T00:48:38.514Z,85.83
2018-03-28T00:49:38.429Z,86.97
2018-03-28T00:50:38.351Z,86.78
2018-03-28T00:51:38.266Z,86.59
2018-03-28T00:52:38.181Z,86.59
2018-03-28T00:53:38.104Z,87.06
2018-03-28T00:54:38.033Z,86.78
2018-03-28T00:55:37.940Z,87.25
2018-03-28T00:56:37.852Z,87.16
2018-03-28T00:57:37.773Z,86.87
2018-03-28T00:58:37.697Z,87.82
2018-03-28T00:59:37.655Z,88.48
2018-03-28T01:00:37.534Z,88.58
2018-03-28T01:01:37.440Z,88.39
2018-03-28T01:02:37.358Z,88.48
2018-03-28T01:03:37.277Z,88.39
2018-03-28T01:04:37.193Z,88.96
2018-03-28T01:05:37.110Z,88.77
2018-03-28T01:06:37.030Z,88.68
2018-03-28T01:07:36.945Z,88.68
2018-03-28T01:08:36.863Z,88.68
2018-03-28T01:09:36.782Z,89.15
2018-03-28T01:10:36.703Z,88.77
2018-03-28T01:11:36.614Z,88.39
2018-03-28T01:12:36.534Z,88.48
2018-03-28T01:13:36.450Z,88.68
2018-03-28T01:14:36.369Z,88.77
2018-03-28T01:15:36.285Z,89.34
2018-03-28T01:16:36.201Z,88.77
2018-03-28T01:17:36.119Z,89.62
2018-03-28T01:18:36.036Z,88.96
2018-03-28T01:19:35.954Z,89.15
2018-03-28T01:20:35.877Z,89.15
2018-03-28T01:21:35.815Z,88.77
2018-03-28T01:22:35.707Z,89.34
2018-03-28T01:23:35.627Z,89.62
2018-03-28T01:24:35.543Z,89.72
2018-03-28T01:25:35.459Z,89.81
2018-03-28T01:26:35.380Z,89.72
2018-03-28T01:27:35.296Z,89.72
2018-03-28T01:28:35.210Z,90.29
2018-03-28T01:29:35.141Z,90.10
2018-03-28T01:30:35.048Z,90.00
2018-03-28T01:31:34.966Z,90.29
2018-03-28T01:32:34.879Z,90.00
2018-03-28T01:33:34.798Z,90.48
2018-03-28T01:34:34.729Z,91.05
2018-03-28T01:35:34.634Z,90.48
2018-03-28T01:36:34.548Z,91.05
2018-03-28T01:37:34.470Z,90.67
2018-03-28T01:38:34.386Z,90.95
2018-03-28T01:39:34.312Z,90.95
2018-03-28T01:40:34.224Z,91.05
2018-03-28T01:41:34.139Z,90.95
2018-03-28T01:42:34.057Z,90.38
2018-03-28T01:43:33.977Z,90.10
2018-03-28T01:44:33.894Z,90.38
2018-03-28T01:45:33.810Z,90.95
2018-03-28T01:46:33.725Z,90.95
2018-03-28T01:47:33.643Z,91.00
2018-03-28T01:48:33.565Z,90.90
2018-03-28T01:49:33.488Z,90.14
2018-03-28T01:50:33.400Z,90.14
2018-03-28T01:51:33.316Z,91.00
2018-03-28T01:52:33.234Z,90.90
2018-03-28T01:53:33.155Z,90.14
2018-03-28T01:54:33.067Z,89.95
2018-03-28T01:55:32.985Z,90.90
2018-03-28T01:56:32.904Z,91.14
2018-03-28T01:57:32.822Z,90.71
2018-03-28T01:58:32.736Z,90.86
2018-03-28T01:59:32.654Z,91.09
2018-03-28T02:00:32.575Z,91.28
2018-03-28T02:01:32.518Z,91.28
2018-03-28T02:02:32.409Z,91.94
2018-03-28T02:03:32.325Z,91.71
2018-03-28T02:04:32.245Z,91.80
2018-03-28T02:05:32.160Z,91.61
2018-03-28T02:06:32.078Z,91.80
2018-03-28T02:07:31.995Z,91.99
2018-03-28T02:08:31.913Z,91.90
2018-03-28T02:09:31.839Z,91.71
2018-03-28T02:10:31.757Z,92.47
2018-03-28T02:11:31.674Z,91.90
2018-03-28T02:12:31.584Z,92.23
2018-03-28T02:13:31.502Z,92.23
2018-03-28T02:14:31.418Z,91.71
2018-03-28T02:15:31.341Z,92.04
2018-03-28T02:16:31.254Z,91.66
2018-03-28T02:17:31.173Z,91.56
2018-03-28T02:18:31.090Z,92.04
2018-03-28T02:19:31.008Z,91.66
2018-03-28T02:20:30.940Z,91.75
2018-03-28T02:21:30.842Z,91.71
2018-03-28T02:22:30.783Z,91.66
2018-03-28T02:23:30.682Z,91.66
2018-03-28T02:24:30.624Z,92.80
2018-03-28T02:25:30.513Z,91.94
2018-03-28T02:26:30.434Z,92.04
2018-03-28T02:27:30.347Z,91.38
2018-03-28T02:28:30.268Z,91.85
2018-03-28T02:29:30.182Z,92.04
2018-03-28T02:30:30.102Z,91.75
2018-03-28T02:31:30.020Z,91.80
2018-03-28T02:32:29.937Z,91.56
2018-03-28T02:33:29.861Z,92.09
2018-03-28T02:34:29.774Z,92.23
2018-03-28T02:35:29.695Z,92.42
2018-03-28T02:36:29.607Z,92.23
2018-03-28T02:37:29.527Z,91.85
2018-03-28T02:38:29.444Z,91.66
2018-03-28T02:39:29.408Z,91.56
2018-03-28T02:40:29.281Z,91.66
2018-03-28T02:41:29.196Z,92.18
2018-03-28T02:42:29.117Z,92.33
2018-03-28T02:43:29.034Z,92.71
2018-03-28T02:44:28.947Z,92.52
2018-03-28T02:45:28.867Z,92.90
2018-03-28T02:46:28.785Z,92.52
2018-03-28T02:47:28.704Z,92.42
2018-03-28T02:48:28.640Z,92.42
2018-03-28T02:49:28.538Z,92.52
2018-03-28T02:50:28.454Z,92.52
2018-03-28T02:51:28.386Z,92.99
2018-03-28T02:52:28.289Z,92.99
2018-03-28T02:53:28.222Z,93.18
2018-03-28T02:54:28.160Z,93.18
2018-03-28T02:55:28.045Z,92.94
2018-03-28T02:56:27.966Z,93.13
2018-03-28T02:57:27.878Z,93.51
2018-03-28T02:58:27.802Z,93.61
2018-03-28T02:59:27.716Z,93.46
2018-03-28T03:00:27.641Z,93.41
2018-03-28T03:01:27.548Z,93.32
2018-03-28T03:02:27.470Z,93.41
2018-03-28T03:03:27.394Z,94.18
2018-03-28T03:04:27.305Z,93.61
2018-03-28T03:05:27.218Z,94.46
2018-03-28T03:06:27.141Z,94.74
2018-03-28T03:07:27.056Z,93.99
2018-03-28T03:08:26.974Z,93.80
2018-03-28T03:09:26.890Z,93.80
2018-03-28T03:10:26.808Z,94.27
2018-03-28T03:11:26.729Z,93.80
2018-03-28T03:12:26.643Z,94.27
2018-03-28T03:13:26.562Z,94.27
2018-03-28T03:14:26.478Z,93.61
2018-03-28T03:15:26.400Z,94.27
2018-03-28T03:16:26.313Z,94.46
2018-03-28T03:17:26.233Z,93.51
2018-03-28T03:18:26.160Z,94.37
2018-03-28T03:19:26.066Z,94.27
2018-03-28T03:20:25.984Z,94.27
2018-03-28T03:21:25.900Z,93.80
2018-03-28T03:22:25.817Z,94.18
2018-03-28T03:23:25.737Z,94.27
2018-03-28T03:24:25.653Z,93.89
2018-03-28T03:25:25.573Z,93.94
2018-03-28T03:26:25.488Z,94.27
2018-03-28T03:27:25.405Z,94.46
2018-03-28T03:28:25.328Z,94.18
2018-03-28T03:29:25.241Z,94.18
2018-03-28T03:30:25.159Z,94.65
2018-03-28T03:31:25.081Z,94.56
2018-03-28T03:32:24.996Z,94.93
2018-03-28T03:33:24.918Z,94.84
2018-03-28T03:34:24.826Z,95.50
2018-03-28T03:35:24.750Z,95.50
2018-03-28T03:36:24.662Z,95.41
2018-03-28T03:37:24.583Z,94.65
2018-03-28T03:38:24.498Z,94.84
2018-03-28T03:39:24.416Z,94.93
2018-03-28T03:40:24.333Z,95.22
2018-03-28T03:41:24.252Z,94.84
2018-03-28T03:42:24.171Z,94.84
2018-03-28T03:43:24.084Z,94.56
2018-03-28T03:44:24.002Z,94.56
2018-03-28T03:45:24.053Z,94.84
2018-03-28T03:46:23.836Z,94.84
2018-03-28T03:47:23.755Z,94.56
2018-03-28T03:48:23.674Z,94.84
2018-03-28T03:49:23.589Z,94.84
2018-03-28T03:50:23.522Z,94.93
2018-03-28T03:51:23.424Z,95.22
2018-03-28T03:52:23.346Z,95.03
2018-03-28T03:53:23.260Z,95.50
2018-03-28T03:54:23.189Z,95.03
2018-03-28T03:55:23.094Z,95.69
2018-03-28T03:56:23.010Z,95.69
2018-03-28T03:57:22.935Z,96.26
2018-03-28T03:58:22.850Z,95.69
2018-03-28T03:59:22.769Z,95.69
2018-03-28T04:00:22.684Z,96.26
2018-03-28T04:01:22.598Z,95.88
2018-03-28T04:02:22.514Z,95.98
2018-03-28T04:03:22.432Z,96.26
2018-03-28T04:04:22.351Z,96.17
2018-03-28T04:05:22.271Z,96.26
2018-03-28T04:06:22.185Z,96.26
2018-03-28T04:07:22.102Z,96.17
2018-03-28T04:08:22.021Z,95.98
2018-03-28T04:09:21.935Z,96.45
2018-03-28T04:10:21.859Z,96.26
2018-03-28T04:11:21.772Z,95.79
2018-03-28T04:12:21.689Z,96.08
2018-03-28T04:13:21.608Z,96.55
2018-03-28T04:14:21.524Z,96.92
2018-03-28T04:15:21.441Z,96.55
2018-03-28T04:16:21.357Z,97.02
2018-03-28T04:17:21.275Z,96.83
2018-03-28T04:18:21.191Z,96.83
2018-03-28T04:19:21.113Z,96.45
2018-03-28T04:20:21.028Z,96.64
2018-03-28T04:21:20.943Z,96.17
2018-03-28T04:22:20.860Z,96.64
2018-03-28T04:23:20.777Z,96.26
2018-03-28T04:24:20.699Z,97.12
2018-03-28T04:25:20.611Z,96.45
2018-03-28T04:26:20.543Z,96.73
2018-03-28T04:27:20.446Z,96.64
2018-03-28T04:28:20.364Z,96.73
2018-03-28T04:29:20.283Z,96.36
2018-03-28T04:30:20.208Z,96.26
2018-03-28T04:31:20.115Z,96.64
2018-03-28T04:32:20.040Z,96.36
2018-03-28T04:33:19.948Z,96.55
2018-03-28T04:34:19.877Z,96.36
2018-03-28T04:35:19.784Z,97.02
2018-03-28T04:36:19.702Z,97.12
2018-03-28T04:37:19.619Z,97.50
2018-03-28T04:38:19.534Z,97.21
2018-03-28T04:39:19.455Z,97.78
2018-03-28T04:40:19.370Z,97.02
2018-03-28T04:41:19.287Z,97.21
2018-03-28T04:42:19.204Z,97.21
2018-03-28T04:43:19.121Z,97.31
2018-03-28T04:44:19.038Z,97.59
2018-03-28T04:45:18.962Z,97.02
2018-03-28T04:46:18.871Z,97.31
2018-03-28T04:47:18.794Z,97.31
2018-03-28T04:48:18.715Z,96.92
2018-03-28T04:49:18.623Z,96.26
2018-03-28T04:50:18.582Z,96.64
2018-03-28T04:51:18.460Z,96.64
2018-03-28T04:52:18.374Z,96.45
2018-03-28T04:53:18.295Z,96.45
2018-03-28T04:54:18.211Z,96.64
2018-03-28T04:55:18.131Z,97.50
2018-03-28T04:56:18.048Z,97.21
2018-03-28T04:57:17.962Z,97.31
2018-03-28T04:58:17.879Z,96.92
2018-03-28T04:59:17.796Z,97.31
2018-03-28T05:00:17.715Z,97.40
2018-03-28T05:01:17.631Z,97.02
2018-03-28T05:02:17.566Z,97.40
2018-03-28T05:03:17.462Z,97.59
2018-03-28T05:04:17.446Z,97.12
2018-03-28T05:05:17.298Z,97.69
2018-03-28T05:06:17.224Z,97.69
2018-03-28T05:07:17.132Z,97.12
2018-03-28T05:08:17.112Z,97.88
2018-03-28T05:09:16.964Z,97.88
2018-03-28T05:10:16.911Z,97.78
2018-03-28T05:11:16.919Z,98.44
2018-03-28T05:12:16.718Z,98.35
2018-03-28T05:13:16.635Z,98.35
2018-03-28T05:14:16.553Z,98.54
2018-03-28T05:15:16.468Z,98.54
2018-03-28T05:16:16.385Z,98.25
2018-03-28T05:17:16.308Z,98.35
2018-03-28T05:18:16.235Z,98.25
2018-03-28T05:19:16.135Z,98.35
2018-03-28T05:20:16.055Z,98.07
2018-03-28T05:21:15.971Z,97.69
2018-03-28T05:22:15.890Z,97.40
2018-03-28T05:23:15.809Z,97.50
2018-03-28T05:24:15.723Z,98.07
2018-03-28T05:25:15.639Z,97.88
2018-03-28T05:26:15.564Z,97.78
2018-03-28T05:27:15.472Z,98.16
2018-03-28T05:28:15.402Z,98.16
2018-03-28T05:29:15.308Z,98.54
2018-03-28T05:30:15.225Z,97.59
2018-03-28T05:31:15.143Z,97.59
2018-03-28T05:32:15.060Z,97.88
2018-03-28T05:33:14.977Z,98.16
2018-03-28T05:34:14.903Z,97.59
2018-03-28T05:35:14.810Z,97.59
2018-03-28T05:36:14.724Z,97.59
2018-03-28T05:37:14.643Z,97.88
2018-03-28T05:38:14.561Z,97.97
2018-03-28T05:39:14.478Z,98.25
2018-03-28T05:40:14.393Z,97.40
2018-03-28T05:41:14.312Z,97.50
2018-03-28T05:42:14.237Z,97.02
2018-03-28T05:43:14.155Z,97.31
2018-03-28T05:44:14.076Z,97.88
2018-03-28T05:45:13.981Z,97.88
2018-03-28T05:46:13.898Z,97.88
2018-03-28T05:47:13.814Z,97.97
2018-03-28T05:48:13.734Z,98.07
2018-03-28T05:49:13.647Z,97.88
2018-03-28T05:50:13.567Z,97.88
2018-03-28T05:51:13.483Z,98.07
2018-03-28T05:52:13.413Z,98.16
2018-03-28T05:53:13.316Z,98.54
2018-03-28T05:54:13.236Z,98.25
2018-03-28T05:55:13.152Z,98.25
2018-03-28T05:56:13.076Z,98.44
2018-03-28T05:57:12.987Z,98.16
2018-03-28T05:58:12.903Z,98.73
2018-03-28T05:59:12.822Z,97.88
2018-03-28T06:00:12.787Z,97.78
2018-03-28T06:01:12.654Z,98.35
2018-03-28T06:02:12.580Z,98.82
2018-03-28T06:03:12.492Z,98.07
2018-03-28T06:04:12.420Z,97.31
2018-03-28T06:05:12.329Z,97.31
2018-03-28T06:06:12.243Z,97.40
2018-03-28T06:07:12.221Z,97.21
2018-03-28T06:08:12.128Z,97.02
2018-03-28T06:09:12.000Z,97.12
2018-03-28T06:10:11.915Z,97.40
2018-03-28T06:11:11.830Z,98.07
2018-03-28T06:12:11.748Z,98.07
2018-03-28T06:13:11.667Z,97.31
2018-03-28T06:14:11.582Z,98.07
2018-03-28T06:15:11.497Z,98.54
2018-03-28T06:16:11.415Z,98.07
2018-03-28T06:17:11.331Z,97.59
2018-03-28T06:18:11.254Z,97.40
2018-03-28T06:19:11.167Z,97.31
2018-03-28T06:20:11.086Z,97.12
2018-03-28T06:21:11.004Z,97.40
2018-03-28T06:22:10.922Z,97.50
2018-03-28T06:23:10.837Z,97.40
2018-03-28T06:24:10.764Z,97.12
2018-03-28T06:25:10.672Z,97.31
2018-03-28T06:26:10.589Z,97.88
2018-03-28T06:27:10.511Z,97.88
2018-03-28T06:28:10.422Z,97.78
2018-03-28T06:29:10.357Z,98.35
2018-03-28T06:30:10.262Z,98.25
2018-03-28T06:31:11.052Z,98.16
2018-03-28T06:32:10.272Z,97.88
2018-03-28T06:33:10.022Z,97.88
2018-03-28T06:34:09.932Z,98.07
2018-03-28T06:35:09.845Z,98.54
2018-03-28T06:36:09.769Z,98.16
2018-03-28T06:37:09.678Z,98.54
2018-03-28T06:38:09.600Z,98.54
2018-03-28T06:39:09.516Z,98.44
2018-03-28T06:40:09.432Z,98.35
2018-03-28T06:41:09.351Z,98.54
2018-03-28T06:42:09.272Z,98.63
2018-03-28T06:43:09.183Z,98.54
2018-03-28T06:44:09.102Z,99.01
2018-03-28T06:45:09.018Z,99.39
2018-03-28T06:46:08.935Z,99.11
2018-03-28T06:47:08.858Z,98.92
2018-03-28T06:48:08.771Z,98.92
2018-03-28T06:49:08.712Z,99.20
2018-03-28T06:50:08.603Z,98.54
2018-03-28T06:51:08.521Z,98.44
2018-03-28T06:52:08.439Z,99.39
2018-03-28T06:53:08.356Z,99.20
2018-03-28T06:54:08.274Z,99.39
2018-03-28T06:55:08.193Z,99.68
2018-03-28T06:56:08.110Z,99.20
2018-03-28T06:57:08.026Z,99.99
2018-03-28T06:58:07.938Z,99.01
2018-03-28T06:59:07.876Z,99.99
2018-03-28T07:00:07.775Z,99.30
2018-03-28T07:01:07.690Z,99.49
2018-03-28T07:02:07.612Z,99.99
2018-03-28T07:03:07.527Z,99.68
2018-03-28T07:04:07.439Z,99.99
2018-03-28T07:05:07.364Z,99.68
2018-03-28T07:06:07.277Z,99.87
2018-03-28T07:07:07.196Z,99.20
2018-03-28T07:08:07.109Z,99.20
2018-03-28T07:09:07.034Z,98.92
2018-03-28T07:10:06.954Z,99.39
2018-03-28T07:11:06.859Z,99.77
2018-03-28T07:12:06.778Z,99.49
2018-03-28T07:13:06.693Z,99.77
2018-03-28T07:14:06.633Z,99.96
2018-03-28T07:15:06.530Z,99.87
2018-03-28T07:16:06.448Z,99.99
2018-03-28T07:17:06.362Z,99.99
2018-03-28T07:18:06.284Z,99.99
2018-03-28T07:19:06.196Z,99.99
2018-03-28T07:20:06.111Z,99.99
2018-03-28T07:21:06.029Z,99.99
2018-03-28T07:22:05.951Z,99.99
2018-03-28T07:23:05.862Z,99.96
2018-03-28T07:24:05.801Z,99.77
2018-03-28T07:25:05.711Z,99.68
2018-03-28T07:26:05.625Z,99.68
2018-03-28T07:27:05.533Z,99.20
2018-03-28T07:28:05.450Z,99.01
2018-03-28T07:29:05.365Z,99.20
2018-03-28T07:30:05.289Z,99.01
2018-03-28T07:31:05.279Z,99.11
2018-03-28T07:32:05.118Z,99.58
2018-03-28T07:33:05.034Z,99.20
2018-03-28T07:34:04.953Z,99.20
2018-03-28T07:35:04.867Z,99.68
2018-03-28T07:36:04.785Z,99.68
2018-03-28T07:37:04.705Z,99.20
2018-03-28T07:38:04.624Z,99.39
2018-03-28T07:39:04.550Z,99.58
2018-03-28T07:40:04.460Z,99.77
2018-03-28T07:41:04.371Z,99.20
2018-03-28T07:42:04.290Z,99.11
2018-03-28T07:43:04.205Z,99.30
2018-03-28T07:44:04.122Z,99.68
2018-03-28T07:45:04.042Z,99.99
2018-03-28T07:46:03.958Z,99.99
2018-03-28T07:47:03.872Z,99.96
2018-03-28T07:48:03.794Z,99.68
2018-03-28T07:49:03.741Z,99.20
2018-03-28T07:50:03.625Z,99.49
2018-03-28T07:51:03.541Z,99.68
2018-03-28T07:52:03.464Z,99.49
2018-03-28T07:53:03.378Z,99.68
2018-03-28T07:54:03.296Z,99.77
2018-03-28T07:55:03.220Z,99.99
2018-03-28T07:56:03.131Z,99.49
2018-03-28T07:57:03.047Z,99.77
2018-03-28T07:58:02.966Z,99.77
2018-03-28T07:59:02.881Z,99.87
2018-03-28T08:00:02.807Z,99.96
2018-03-28T08:01:02.712Z,99.20
2018-03-28T08:02:02.635Z,99.11
2018-03-28T08:03:02.550Z,99.20
2018-03-28T08:04:02.464Z,99.87
2018-03-28T08:05:02.384Z,99.96
2018-03-28T08:06:02.299Z,99.99
2018-03-28T08:07:02.219Z,99.99
2018-03-28T08:08:02.133Z,99.99
2018-03-28T08:09:02.051Z,99.58
2018-03-28T08:10:01.972Z,99.99
2018-03-28T08:11:01.889Z,99.77
2018-03-28T08:12:01.802Z,99.96
2018-03-28T08:13:01.726Z,99.99
2018-03-28T08:14:01.638Z,99.01
2018-03-28T08:15:01.555Z,99.99
2018-03-28T08:16:01.471Z,99.68
2018-03-28T08:17:01.390Z,99.87
2018-03-28T08:18:01.307Z,99.87
2018-03-28T08:19:01.270Z,99.77
2018-03-28T08:20:01.138Z,99.68
2018-03-28T08:21:01.062Z,99.58
2018-03-28T08:22:01.010Z,99.99
2018-03-28T08:23:00.896Z,99.58
2018-03-28T08:24:00.810Z,99.30
2018-03-28T08:25:00.728Z,99.01
2018-03-28T08:26:00.648Z,99.01
2018-03-28T08:27:00.562Z,98.92
2018-03-28T08:28:00.485Z,99.20
2018-03-28T08:29:00.398Z,98.44
2018-03-28T08:30:00.314Z,98.82
2018-03-28T08:31:00.239Z,98.35
2018-03-28T08:32:00.150Z,98.16
2018-03-28T08:33:00.067Z,98.63
2018-03-28T08:33:59.983Z,99.20
2018-03-28T08:34:59.922Z,98.92
2018-03-28T08:35:59.827Z,99.58
2018-03-28T08:36:59.748Z,99.39
2018-03-28T08:37:59.671Z,99.49
2018-03-28T08:38:59.582Z,99.49
2018-03-28T08:39:59.492Z,99.30
2018-03-28T08:40:59.406Z,99.30
2018-03-28T08:41:59.323Z,99.30
2018-03-28T08:42:59.268Z,99.30
2018-03-28T08:43:59.157Z,99.20
2018-03-28T08:44:59.077Z,99.87
2018-03-28T08:45:58.995Z,99.20
2018-03-28T08:46:58.916Z,99.01
2018-03-28T08:47:58.828Z,99.49
2018-03-28T08:48:58.744Z,99.30
2018-03-28T08:49:58.662Z,99.99
2018-03-28T08:50:58.582Z,99.77
2018-03-28T08:51:58.496Z,99.77
2018-03-28T08:52:58.415Z,99.77
2018-03-28T08:53:58.330Z,99.87
2018-03-28T08:54:58.249Z,99.39
2018-03-28T08:55:58.167Z,99.11
2018-03-28T08:56:58.083Z,99.01
2018-03-28T08:57:58.000Z,99.30
2018-03-28T08:58:57.924Z,99.39
2018-03-28T08:59:57.833Z,99.20
2018-03-28T09:00:57.753Z,99.11
2018-03-28T09:01:57.702Z,98.92
2018-03-28T09:02:57.590Z,99.30
2018-03-28T09:03:57.509Z,99.11
2018-03-28T09:04:57.427Z,99.01
2018-03-28T09:05:57.342Z,98.44
2018-03-28T09:06:57.259Z,99.01
2018-03-28T09:07:57.175Z,99.06
2018-03-28T09:08:57.093Z,99.06
2018-03-28T09:09:57.012Z,99.16
2018-03-28T09:10:56.928Z,99.16
2018-03-28T09:11:56.847Z,98.30
2018-03-28T09:12:56.763Z,98.59
2018-03-28T09:13:56.680Z,98.78
2018-03-28T09:14:56.597Z,98.78
2018-03-28T09:15:56.515Z,98.02
2018-03-28T09:16:56.433Z,98.02
2018-03-28T09:17:56.350Z,97.74
2018-03-28T09:18:56.271Z,97.92
2018-03-28T09:19:56.186Z,97.92
2018-03-28T09:20:56.103Z,97.74
2018-03-28T09:21:56.032Z,98.87
2018-03-28T09:22:55.940Z,98.40
2018-03-28T09:23:55.861Z,98.54
2018-03-28T09:24:55.780Z,98.35
2018-03-28T09:25:55.697Z,98.73
2018-03-28T09:26:55.613Z,99.02
2018-03-28T09:27:55.529Z,98.54
2018-03-28T09:28:55.450Z,98.83
2018-03-28T09:29:55.368Z,97.69
2018-03-28T09:30:55.287Z,97.97
2018-03-28T09:31:55.211Z,97.97
2018-03-28T09:32:55.142Z,97.31
2018-03-28T09:33:55.041Z,97.64
2018-03-28T09:34:55.028Z,97.45
2018-03-28T09:35:54.877Z,97.83
2018-03-28T09:36:54.802Z,98.49
2018-03-28T09:37:54.714Z,97.64
2018-03-28T09:38:54.633Z,98.30
2018-03-28T09:39:54.552Z,98.30
2018-03-28T09:40:54.471Z,98.68
2018-03-28T09:41:54.395Z,99.26
2018-03-28T09:42:54.304Z,99.21
2018-03-28T09:43:54.225Z,99.63
2018-03-28T09:44:54.147Z,99.11
2018-03-28T09:45:54.061Z,99.11
2018-03-28T09:46:53.980Z,99.30
2018-03-28T09:47:53.898Z,99.49
2018-03-28T09:48:53.814Z,99.11
2018-03-28T09:49:53.735Z,99.11
2018-03-28T09:50:53.651Z,98.54
2018-03-28T09:51:53.568Z,98.92
2018-03-28T09:52:53.492Z,98.54
2018-03-28T09:53:53.410Z,98.45
2018-03-28T09:54:53.328Z,98.64
2018-03-28T09:55:53.241Z,98.54
2018-03-28T09:56:53.161Z,98.16
2018-03-28T09:57:53.081Z,97.78
2018-03-28T09:58:53.000Z,97.88
2018-03-28T09:59:52.918Z,97.31
2018-03-28T10:00:52.840Z,97.31
2018-03-28T10:01:52.766Z,97.88
2018-03-28T10:02:52.674Z,97.88
2018-03-28T10:03:52.593Z,98.45
2018-03-28T10:04:52.511Z,98.16
2018-03-28T10:05:52.432Z,98.07
2018-03-28T10:06:52.348Z,98.64
2018-03-28T10:07:52.266Z,98.73
2018-03-28T10:08:52.183Z,98.54
2018-03-28T10:09:52.101Z,98.64
2018-03-28T10:10:52.026Z,99.30
2018-03-28T10:11:51.936Z,99.02
2018-03-28T10:12:51.856Z,98.16
2018-03-28T10:13:51.772Z,98.54
2018-03-28T10:14:51.696Z,98.73
2018-03-28T10:15:51.612Z,98.54
2018-03-28T10:16:51.546Z,98.83
2018-03-28T10:17:51.446Z,99.30
2018-03-28T10:18:51.374Z,99.02
2018-03-28T10:19:51.282Z,99.68
2018-03-28T10:20:51.201Z,99.21
2018-03-28T10:21:51.126Z,99.11
2018-03-28T10:22:51.040Z,99.21
2018-03-28T10:23:50.963Z,98.73
2018-03-28T10:24:50.893Z,98.64
2018-03-28T10:25:50.803Z,98.83
2018-03-28T10:26:50.725Z,99.02
2018-03-28T10:27:50.630Z,99.02
2018-03-28T10:28:50.549Z,99.40
2018-03-28T10:29:50.478Z,99.30
2018-03-28T10:30:50.400Z,99.68
2018-03-28T10:31:50.304Z,99.40
2018-03-28T10:32:50.234Z,99.58
2018-03-28T10:33:50.138Z,99.30
2018-03-28T10:34:50.058Z,99.30
2018-03-28T10:35:49.978Z,99.49
2018-03-28T10:36:49.895Z,99.68
2018-03-28T10:37:49.813Z,99.58
2018-03-28T10:38:49.734Z,99.77
2018-03-28T10:39:49.649Z,99.77
2018-03-28T10:40:49.577Z,99.87
2018-03-28T10:41:49.492Z,99.68
2018-03-28T10:42:49.406Z,99.58
2018-03-28T10:43:49.322Z,99.30
2018-03-28T10:44:49.244Z,99.30
2018-03-28T10:45:49.164Z,99.68
2018-03-28T10:46:49.076Z,99.49
2018-03-28T10:47:48.996Z,99.40
2018-03-28T10:48:48.914Z,99.02
2018-03-28T10:49:48.832Z,99.11
2018-03-28T10:50:48.764Z,98.54
2018-03-28T10:51:48.669Z,99.11
2018-03-28T10:52:48.585Z,99.11
2018-03-28T10:53:48.505Z,99.11
2018-03-28T10:54:48.427Z,99.21
2018-03-28T10:55:48.341Z,99.40
2018-03-28T10:56:48.260Z,99.30
2018-03-28T10:57:48.178Z,99.11
2018-03-28T10:58:48.102Z,99.30
2018-03-28T10:59:48.016Z,99.30
2018-03-28T11:00:47.955Z,99.49
2018-03-28T11:01:47.852Z,99.68
2018-03-28T11:02:47.771Z,99.40
2018-03-28T11:03:47.688Z,99.30
2018-03-28T11:04:47.609Z,99.30
2018-03-28T11:05:47.526Z,99.40
2018-03-28T11:06:47.449Z,99.30
2018-03-28T11:07:47.377Z,99.68
2018-03-28T11:08:47.286Z,99.49
2018-03-28T11:09:47.200Z,99.49
2018-03-28T11:10:47.118Z,99.30
2018-03-28T11:11:47.038Z,99.11
2018-03-28T11:12:46.953Z,99.11
2018-03-28T11:13:46.873Z,99.58
2018-03-28T11:14:46.795Z,99.40
2018-03-28T11:15:46.708Z,99.49
2018-03-28T11:16:46.626Z,99.21
2018-03-28T11:17:46.546Z,99.30
2018-03-28T11:18:46.463Z,99.11
2018-03-28T11:19:46.381Z,99.49
2018-03-28T11:20:46.302Z,99.68
2018-03-28T11:21:46.221Z,99.30
2018-03-28T11:22:46.135Z,99.77
2018-03-28T11:23:46.070Z,99.99
2018-03-28T11:24:45.972Z,99.30
2018-03-28T11:25:45.894Z,99.11
2018-03-28T11:26:45.813Z,99.49
2018-03-28T11:27:45.729Z,99.68
2018-03-28T11:28:45.648Z,99.58
2018-03-28T11:29:45.565Z,99.77
2018-03-28T11:30:45.488Z,99.11
2018-03-28T11:31:45.400Z,99.30
2018-03-28T11:32:45.319Z,99.40
2018-03-28T11:33:45.241Z,99.02
2018-03-28T11:34:45.185Z,99.49
2018-03-28T11:35:45.075Z,99.40
2018-03-28T11:36:44.999Z,99.40
2018-03-28T11:37:44.921Z,99.87
2018-03-28T11:38:44.836Z,99.30
2018-03-28T11:39:44.746Z,99.68
2018-03-28T11:40:44.664Z,99.40
2018-03-28T11:41:44.586Z,99.40
2018-03-28T11:42:44.503Z,99.68
2018-03-28T11:43:44.421Z,99.40
2018-03-28T11:44:44.348Z,99.40
2018-03-28T11:45:44.259Z,99.99
2018-03-28T11:46:44.179Z,99.54
2018-03-28T11:47:44.095Z,99.73
2018-03-28T11:48:44.020Z,99.35
2018-03-28T11:49:43.932Z,99.35
2018-03-28T11:50:43.860Z,99.54
2018-03-28T11:51:43.786Z,99.54
2018-03-28T11:52:43.696Z,99.54
2018-03-28T11:53:43.608Z,99.35
2018-03-28T11:54:43.524Z,99.35
2018-03-28T11:55:43.444Z,99.73
2018-03-28T11:56:43.361Z,99.64
2018-03-28T11:57:43.280Z,99.26
2018-03-28T11:58:43.212Z,99.26
2018-03-28T11:59:43.116Z,99.54
2018-03-28T12:00:43.035Z,99.26
2018-03-28T12:01:42.954Z,99.44
2018-03-28T12:02:42.884Z,99.54
2018-03-28T12:03:42.792Z,99.35
2018-03-28T12:04:42.739Z,99.16
2018-03-28T12:05:42.634Z,99.64
2018-03-28T12:06:42.553Z,99.26
2018-03-28T12:07:42.469Z,98.93
2018-03-28T12:08:42.398Z,98.69
2018-03-28T12:09:42.305Z,99.26
2018-03-28T12:10:42.224Z,99.88
2018-03-28T12:11:42.144Z,99.59
2018-03-28T12:12:42.073Z,99.11
2018-03-28T12:13:41.983Z,99.30
2018-03-28T12:14:41.905Z,99.40
2018-03-28T12:15:41.820Z,98.93
2018-03-28T12:16:41.738Z,98.45
2018-03-28T12:17:41.678Z,98.64
2018-03-28T12:18:41.577Z,98.45
2018-03-28T12:19:41.500Z,98.64
2018-03-28T12:20:41.417Z,99.02
2018-03-28T12:21:41.336Z,98.64
2018-03-28T12:22:41.257Z,98.93
2018-03-28T12:23:41.176Z,98.36
2018-03-28T12:24:41.093Z,98.64
2018-03-28T12:25:41.021Z,98.45
2018-03-28T12:26:40.936Z,98.26
2018-03-28T12:27:40.852Z,98.36
2018-03-28T12:28:40.773Z,98.45
2018-03-28T12:29:40.703Z,98.26
2018-03-28T12:30:40.618Z,98.97
2018-03-28T12:31:40.530Z,98.50
2018-03-28T12:32:40.452Z,98.31
2018-03-28T12:33:40.373Z,98.88
2018-03-28T12:34:40.291Z,98.69
2018-03-28T12:35:40.208Z,97.74
2018-03-28T12:36:40.128Z,97.13
2018-03-28T12:37:40.052Z,97.22
2018-03-28T12:38:39.979Z,97.31
2018-03-28T12:39:39.892Z,96.17
2018-03-28T12:40:39.812Z,95.22
2018-03-28T12:41:39.730Z,93.22
2018-03-28T12:42:39.653Z,92.46
2018-03-28T12:43:39.570Z,91.17
2018-03-28T12:44:39.493Z,90.79
2018-03-28T12:45:39.413Z,90.03
2018-03-28T12:46:39.338Z,88.12
2018-03-28T12:47:39.270Z,87.21
2018-03-28T12:48:39.186Z,85.49
2018-03-28T12:49:39.204Z,86.06
2018-03-28T12:50:39.053Z,86.49
2018-03-28T12:51:38.955Z,86.59